Search for airport 
image banner adimage banner adimage banner ad
image banner ad

KEFW - Jefferson Muni

Located in Jefferson, United States

ICAO - EFW, IATA - EFW

Data provided by Airmate  

General information

Coordinates: N42°0'38" W94°20'32"
Elevation is 1044 feet MSL.
Magnetic variation is 03° East
View others Airports in Iowa

Operational data

Special qualification required
Current time UTC:
Current local time:
Weather at : KPRO - Perry Muni ( 25 km )
METAR: KPRO 150935Z AUTO 35003KT 10SM CLR 14/11 A3011 RMK AO2 T01380107
View NOTAMs / SUP AIP / TFR affecting this airport [VIEW]
Communications frequencies: [VIEW]

Runways:

RWY identifierQFULength (ft)Width (ft)SurfaceLDA (ft)
14143°320075CONC
32323°320075CONC
18191°1696150GRASS
3611°1696150GRASS

Airport contact information

Address: Jefferson United States

Satellite view of KEFW